createdAt,value
2022-11-13T00:02:05.815Z,100876.63
2022-11-13T00:04:35.509Z,100860.53
2022-11-13T00:07:03.643Z,100966.75
2022-11-13T00:09:31.636Z,100795.72
2022-11-13T00:11:59.857Z,100533.38
2022-11-13T00:14:28.098Z,100800.06
2022-11-13T00:16:56.276Z,100523.34
2022-11-13T00:19:24.388Z,100924.94
2022-11-13T00:21:55.143Z,100773.16
2022-11-13T00:24:22.762Z,100681.84
2022-11-13T00:26:50.450Z,100899.38
2022-11-13T00:29:18.141Z,100812.16
2022-11-13T00:31:46.036Z,100871.84
2022-11-13T00:34:40.955Z,100905.53
2022-11-13T00:37:02.889Z,100811.88
2022-11-13T00:39:30.533Z,100823.56
2022-11-13T00:41:58.270Z,100846.88
2022-11-13T00:44:26.068Z,100778.50
2022-11-13T00:46:53.789Z,100806.13
2022-11-13T00:49:21.513Z,100776.56
2022-11-13T00:51:49.274Z,100673.81
2022-11-13T00:54:18.574Z,100890.13
2022-11-13T00:56:46.325Z,100628.66
2022-11-13T00:59:14.107Z,100603.91
2022-11-13T01:01:41.901Z,100732.75
2022-11-13T01:04:09.629Z,100782.72
2022-11-13T01:06:37.584Z,100549.34
2022-11-13T01:09:05.355Z,100819.84
2022-11-13T01:11:34.433Z,100880.44
2022-11-13T01:14:02.200Z,100499.78
2022-11-13T01:16:30.016Z,100829.97
2022-11-13T01:18:57.858Z,100823.72
2022-11-13T01:21:26.528Z,100769.97
2022-11-13T01:23:54.730Z,100727.41
2022-11-13T01:26:23.649Z,100447.47
2022-11-13T01:28:52.762Z,100649.91
2022-11-13T01:31:22.013Z,100856.34
2022-11-13T01:33:49.810Z,100754.47
2022-11-13T01:36:19.572Z,100789.50
2022-11-13T01:38:47.507Z,100499.16
2022-11-13T01:41:23.178Z,100718.19
2022-11-13T01:43:53.276Z,100643.41
2022-11-13T01:46:32.694Z,100598.91
2022-11-13T01:49:04.078Z,100833.84
2022-11-13T01:51:33.791Z,100801.25
2022-11-13T01:54:02.239Z,100623.81
2022-11-13T01:56:29.889Z,100620.41
2022-11-13T01:59:03.053Z,100759.38
2022-11-13T02:01:31.034Z,100851.25
2022-11-13T02:03:58.867Z,100544.06
2022-11-13T02:06:26.965Z,100874.78
2022-11-13T02:08:54.686Z,100733.03
2022-11-13T02:11:22.523Z,100669.00
2022-11-13T02:13:50.326Z,100602.09
2022-11-13T02:16:19.529Z,100503.03
2022-11-13T02:18:47.247Z,100677.50
2022-11-13T02:21:21.548Z,100518.50
2022-11-13T02:23:55.076Z,100937.50
2022-11-13T02:26:24.195Z,100496.41
2022-11-13T02:28:51.900Z,100891.16
2022-11-13T02:31:19.550Z,100508.91
2022-11-13T02:33:47.258Z,100531.00
2022-11-13T02:36:14.976Z,100738.06
2022-11-13T02:38:42.765Z,100756.84
2022-11-13T02:41:10.399Z,100661.38
2022-11-13T02:43:39.775Z,100844.53
2022-11-13T02:46:07.931Z,100616.69
2022-11-13T02:48:35.963Z,100730.31
2022-11-13T02:51:03.930Z,100691.94
2022-11-13T02:53:32.001Z,100601.88
2022-11-13T02:55:59.990Z,100753.25
2022-11-13T02:58:28.189Z,100496.91
2022-11-13T03:00:57.985Z,100611.09
2022-11-13T03:03:55.988Z,100767.06
2022-11-13T03:06:14.004Z,100657.00
2022-11-13T03:08:42.123Z,100583.97
2022-11-13T03:11:10.404Z,100623.06
2022-11-13T03:13:38.478Z,100590.94
2022-11-13T03:16:10.229Z,100824.03
2022-11-13T03:18:38.400Z,100586.19
2022-11-13T03:21:10.735Z,100749.84
2022-11-13T03:23:39.062Z,100837.72
2022-11-13T03:26:07.746Z,100395.47
2022-11-13T03:28:35.714Z,100691.75
2022-11-13T03:31:03.976Z,100635.59
2022-11-13T03:33:33.736Z,100467.72
2022-11-13T03:36:01.766Z,100500.25
2022-11-13T03:38:29.940Z,100604.53
2022-11-13T03:40:58.187Z,100711.41
2022-11-13T03:43:26.270Z,100612.19
2022-11-13T03:45:56.029Z,100483.19
2022-11-13T03:48:23.919Z,100568.72
2022-11-13T03:50:54.316Z,100584.25
2022-11-13T03:53:22.250Z,100709.84
2022-11-13T03:55:50.359Z,100631.94
2022-11-13T03:58:18.242Z,100391.69
2022-11-13T04:00:46.491Z,100748.22
2022-11-13T04:03:14.291Z,100691.88
2022-11-13T04:05:43.206Z,100862.94
2022-11-13T04:08:12.425Z,100659.47
2022-11-13T04:10:46.798Z,100735.75
2022-11-13T04:13:14.609Z,100829.75
2022-11-13T04:15:42.807Z,100603.38
2022-11-13T04:18:10.877Z,100396.47
2022-11-13T04:20:38.936Z,100770.09
2022-11-13T04:23:11.448Z,100647.28
2022-11-13T04:25:40.903Z,100828.06
2022-11-13T04:28:09.795Z,100673.88
2022-11-13T04:30:37.955Z,100760.97
2022-11-13T04:33:05.991Z,100634.91
2022-11-13T04:35:33.919Z,100807.00
2022-11-13T04:38:01.860Z,100641.09
2022-11-13T04:40:29.895Z,100467.56
2022-11-13T04:42:58.256Z,100685.91
2022-11-13T04:45:27.583Z,100639.72
2022-11-13T04:47:55.618Z,100372.19
2022-11-13T04:50:23.515Z,100429.13
2022-11-13T04:52:51.494Z,100804.03
2022-11-13T04:55:19.534Z,100485.09
2022-11-13T04:57:47.705Z,100528.25
2022-11-13T05:00:17.882Z,100715.81
2022-11-13T05:02:45.762Z,100663.59
2022-11-13T05:05:13.675Z,100611.44
2022-11-13T05:07:42.761Z,100300.75
2022-11-13T05:10:11.121Z,100254.28
2022-11-13T05:12:38.871Z,100431.84
2022-11-13T05:15:07.914Z,100698.00
2022-11-13T05:17:37.107Z,100793.13
2022-11-13T05:20:05.347Z,100284.97
2022-11-13T05:22:33.136Z,100735.69
2022-11-13T05:25:01.944Z,100614.06
2022-11-13T05:27:30.137Z,100858.19
2022-11-13T05:29:57.982Z,100434.09
2022-11-13T05:32:25.718Z,100527.78
2022-11-13T05:34:55.413Z,100578.88
2022-11-13T05:37:23.294Z,100526.00
2022-11-13T05:39:51.718Z,100546.53
2022-11-13T05:42:19.914Z,100720.47
2022-11-13T05:44:48.017Z,100384.00
2022-11-13T05:47:18.861Z,100366.44
2022-11-13T05:49:46.500Z,100276.41
2022-11-13T05:52:15.543Z,100623.09
2022-11-13T05:54:43.273Z,100538.97
2022-11-13T05:57:10.948Z,100476.31
2022-11-13T05:59:41.149Z,100769.75
2022-11-13T06:02:09.874Z,100316.06
2022-11-13T06:04:37.769Z,100719.28
2022-11-13T06:07:05.607Z,100727.97
2022-11-13T06:09:34.730Z,100518.47
2022-11-13T06:12:02.482Z,100551.19
2022-11-13T06:14:30.222Z,100616.94
2022-11-13T06:16:58.023Z,100614.19
2022-11-13T06:19:25.858Z,100683.53
2022-11-13T06:21:53.992Z,100690.47
2022-11-13T06:24:21.900Z,100609.03
2022-11-13T06:26:51.126Z,100455.19
2022-11-13T06:29:19.047Z,100635.72
2022-11-13T06:31:46.755Z,100578.91
2022-11-13T06:34:14.533Z,100674.84
2022-11-13T06:36:42.238Z,100624.81
2022-11-13T06:39:10.304Z,100472.03
2022-11-13T06:41:38.850Z,100717.53
2022-11-13T06:44:08.096Z,100555.47
2022-11-13T06:46:35.786Z,100406.16
2022-11-13T06:49:03.523Z,100383.16
2022-11-13T06:51:31.590Z,100587.47
2022-11-13T06:53:59.311Z,100570.75
2022-11-13T06:56:27.205Z,100525.91
2022-11-13T06:58:55.031Z,100472.78
2022-11-13T07:01:25.227Z,100453.31
2022-11-13T07:03:53.093Z,100573.75
2022-11-13T07:06:21.558Z,100653.28
2022-11-13T07:08:49.333Z,100576.91
2022-11-13T07:11:18.404Z,100559.59
2022-11-13T07:13:46.129Z,100473.38
2022-11-13T07:16:17.441Z,100563.72
2022-11-13T07:18:50.344Z,100487.06
2022-11-13T07:21:18.120Z,100760.84
2022-11-13T07:23:48.014Z,100466.53
2022-11-13T07:26:15.747Z,100660.06
2022-11-13T07:28:43.579Z,100093.38
2022-11-13T07:31:12.971Z,100439.25
2022-11-13T07:33:40.630Z,100675.31
2022-11-13T07:36:10.362Z,100634.88
2022-11-13T07:38:38.260Z,100596.81
2022-11-13T07:41:06.203Z,100464.44
2022-11-13T07:43:33.998Z,100340.09
2022-11-13T07:46:01.826Z,100494.84
2022-11-13T07:48:29.767Z,100622.94
2022-11-13T07:51:00.951Z,100510.84
2022-11-13T07:53:30.041Z,100291.25
2022-11-13T07:55:57.713Z,100473.56
2022-11-13T07:58:25.393Z,100155.00
2022-11-13T08:00:53.165Z,100608.47
2022-11-13T08:03:20.899Z,100416.19
2022-11-13T08:05:48.510Z,100615.25
2022-11-13T08:08:16.404Z,100397.13
2022-11-13T08:10:45.475Z,100616.47
2022-11-13T08:13:13.336Z,100447.44
2022-11-13T08:15:41.054Z,100529.88
2022-11-13T08:18:08.854Z,100241.25
2022-11-13T08:20:36.642Z,100331.09
2022-11-13T08:23:05.767Z,100381.25
2022-11-13T08:25:33.892Z,100582.53
2022-11-13T08:28:02.921Z,100585.59
2022-11-13T08:30:30.639Z,100483.25
2022-11-13T08:32:58.298Z,100508.06
2022-11-13T08:35:29.444Z,100364.34
2022-11-13T08:38:01.931Z,100619.59
2022-11-13T08:40:29.706Z,100553.75
2022-11-13T08:42:59.931Z,100563.34
2022-11-13T08:45:30.055Z,100363.72
2022-11-13T08:48:00.742Z,100219.16
2022-11-13T08:50:28.954Z,100545.22
2022-11-13T08:52:56.671Z,100258.81
2022-11-13T08:55:24.491Z,100397.06
2022-11-13T08:57:52.281Z,100184.56
2022-11-13T09:00:20.090Z,100376.44
2022-11-13T09:02:49.288Z,100331.59
2022-11-13T09:05:17.050Z,100536.44
2022-11-13T09:07:44.834Z,100400.47
2022-11-13T09:10:13.114Z,100430.84
2022-11-13T09:12:40.863Z,100557.22
2022-11-13T09:15:09.629Z,100396.75
2022-11-13T09:17:37.421Z,100199.75
2022-11-13T09:20:12.666Z,100462.38
2022-11-13T09:22:41.404Z,100422.75
2022-11-13T09:25:10.187Z,100451.72
2022-11-13T09:27:37.970Z,100527.25
2022-11-13T09:30:06.337Z,100425.13
2022-11-13T09:32:34.171Z,100499.50
2022-11-13T09:35:01.823Z,100310.72
2022-11-13T09:37:35.091Z,100408.63
2022-11-13T09:40:02.884Z,100518.34
2022-11-13T09:42:33.979Z,100450.34
2022-11-13T09:45:02.825Z,100401.56
2022-11-13T09:47:33.343Z,100396.50
2022-11-13T09:50:02.684Z,100354.25
2022-11-13T09:52:38.094Z,100382.94
2022-11-13T09:55:06.632Z,100535.72
2022-11-13T09:57:36.593Z,100457.69
2022-11-13T10:00:06.351Z,100531.16
2022-11-13T10:02:46.643Z,100442.53
2022-11-13T10:05:16.549Z,100504.16
2022-11-13T10:07:50.332Z,100406.88
2022-11-13T10:10:37.806Z,100358.47
2022-11-13T10:13:05.571Z,100349.00
2022-11-13T10:15:33.425Z,100359.94
2022-11-13T10:18:03.254Z,100354.69
2022-11-13T10:20:32.602Z,100361.28
2022-11-13T10:23:03.587Z,100336.63
2022-11-13T10:25:32.670Z,100478.28
2022-11-13T10:28:15.821Z,100393.50
2022-11-13T10:30:49.133Z,100449.81
2022-11-13T10:33:19.661Z,100408.00
2022-11-13T10:35:54.497Z,100375.19
2022-11-13T10:38:26.023Z,100266.72
2022-11-13T10:40:54.019Z,100314.22
2022-11-13T10:43:22.871Z,100471.91
2022-11-13T10:45:57.461Z,100241.59
2022-11-13T10:48:27.810Z,100354.53
2022-11-13T10:50:57.346Z,100493.88
2022-11-13T10:53:27.592Z,100373.19
2022-11-13T10:55:57.406Z,100336.28
2022-11-13T10:58:25.232Z,100290.72
2022-11-13T11:00:53.212Z,100423.69
2022-11-13T11:03:22.193Z,100362.63
2022-11-13T11:05:54.162Z,100460.34
2022-11-13T11:08:23.779Z,100363.72
2022-11-13T11:11:15.742Z,100291.78
2022-11-13T11:13:43.504Z,100429.00
2022-11-13T11:16:13.691Z,100412.34
2022-11-13T11:18:43.534Z,100359.94
2022-11-13T11:21:13.667Z,100238.09
2022-11-13T11:23:44.047Z,100410.19
2022-11-13T11:26:15.540Z,100389.31
2022-11-13T11:28:46.239Z,100235.91
2022-11-13T11:31:18.209Z,100349.91
2022-11-13T11:33:50.659Z,100283.19
2022-11-13T11:36:24.044Z,100382.38
2022-11-13T11:38:54.658Z,100180.25
2022-11-13T11:41:27.116Z,100318.91
2022-11-13T11:44:01.976Z,100372.94
2022-11-13T11:46:30.442Z,100273.91
2022-11-13T11:49:00.276Z,100265.69
2022-11-13T11:51:32.086Z,100303.41
2022-11-13T11:54:07.032Z,100221.88
2022-11-13T11:56:37.280Z,100323.19
2022-11-13T11:59:31.275Z,100371.78
2022-11-13T12:02:15.440Z,100267.81
2022-11-13T12:04:51.758Z,100227.84
2022-11-13T12:07:27.588Z,100240.38
2022-11-13T12:09:58.653Z,100169.19
2022-11-13T12:12:35.292Z,100246.31
2022-11-13T12:15:05.013Z,100136.22
2022-11-13T12:17:42.847Z,100306.88
2022-11-13T12:20:18.844Z,100085.16
2022-11-13T12:22:49.567Z,100276.97
2022-11-13T12:25:20.833Z,100276.47
2022-11-13T12:27:53.250Z,100250.25
2022-11-13T12:30:22.247Z,100134.63
2022-11-13T12:32:59.204Z,100068.13
2022-11-13T12:35:27.013Z,100039.03
2022-11-13T12:37:57.645Z,100306.94
2022-11-13T12:40:29.405Z,100227.13
2022-11-13T12:43:13.668Z,100121.94
2022-11-13T12:45:49.633Z,100029.91
2022-11-13T12:48:34.009Z,100226.25
2022-11-13T12:51:02.976Z,100053.16
2022-11-13T12:53:31.443Z,100300.03
2022-11-13T12:56:00.963Z,100103.53
2022-11-13T12:58:31.479Z,100117.94
2022-11-13T13:04:24.680Z,99919.81
2022-11-13T13:06:59.431Z,100072.56
2022-11-13T13:09:38.129Z,100247.91
2022-11-13T13:12:36.187Z,100108.56
2022-11-13T13:15:17.010Z,100109.22
2022-11-13T13:17:46.233Z,100046.91
2022-11-13T13:20:36.769Z,99847.13
2022-11-13T13:23:09.116Z,99945.88
2022-11-13T13:44:40.708Z,99789.00
2022-11-13T13:47:24.246Z,99834.72
2022-11-13T13:49:58.330Z,99920.34
2022-11-13T13:57:12.913Z,100160.31
2022-11-13T13:59:56.211Z,100190.09
2022-11-13T14:02:24.448Z,100161.50
2022-11-13T14:04:53.316Z,100116.88
2022-11-13T14:07:25.936Z,100147.25
2022-11-13T14:10:09.037Z,100176.38
2022-11-13T14:12:36.800Z,100104.22
2022-11-13T14:15:17.775Z,99885.75
2022-11-13T14:17:47.073Z,100119.97
2022-11-13T14:20:15.085Z,100164.06
2022-11-13T14:22:43.640Z,100109.91
2022-11-13T14:25:17.602Z,100071.06
2022-11-13T14:27:45.974Z,100154.38
2022-11-13T14:30:24.406Z,100174.88
2022-11-13T14:32:52.466Z,100085.78
2022-11-13T14:35:29.986Z,99748.38
2022-11-13T14:37:57.998Z,99999.88
2022-11-13T14:40:26.561Z,99909.44
2022-11-13T14:42:55.737Z,100129.16
2022-11-13T14:45:25.667Z,100083.84
2022-11-13T14:48:00.295Z,100134.16
2022-11-13T14:50:29.545Z,100071.06
2022-11-13T14:52:58.634Z,100090.72
2022-11-13T14:55:30.704Z,100099.81
2022-11-13T14:57:58.462Z,100117.59
2022-11-13T15:00:34.327Z,100101.06
2022-11-13T15:03:02.563Z,100128.38
2022-11-13T15:05:32.975Z,100136.31
2022-11-13T15:08:02.182Z,100132.66
2022-11-13T15:10:32.707Z,100140.50
2022-11-13T15:13:01.984Z,99994.69
2022-11-13T15:15:32.214Z,99982.69
2022-11-13T15:19:19.086Z,99713.91
2022-11-13T15:25:47.748Z,99751.19
2022-11-13T15:28:15.498Z,100174.53
2022-11-13T15:30:43.263Z,100071.88
2022-11-13T15:33:14.258Z,100057.84
2022-11-13T15:35:43.324Z,100154.47
2022-11-13T15:38:11.376Z,99771.72
2022-11-13T15:40:39.340Z,100111.75
2022-11-13T15:43:13.464Z,100068.97
2022-11-13T15:46:02.394Z,99733.94
2022-11-13T15:52:40.943Z,100047.81
2022-11-13T15:55:20.380Z,100123.09
2022-11-13T15:57:48.082Z,100105.63
2022-11-13T16:00:18.554Z,100037.56
2022-11-13T16:02:50.318Z,100098.59
2022-11-13T16:05:18.078Z,100070.63
2022-11-13T16:07:45.799Z,100055.19
2022-11-13T16:10:13.498Z,100090.91
2022-11-13T16:12:41.883Z,100097.44
2022-11-13T16:15:10.871Z,100090.63
2022-11-13T16:17:42.326Z,100048.78
2022-11-13T16:20:12.820Z,100093.03
2022-11-13T16:22:43.429Z,100059.38
2022-11-13T16:25:13.323Z,99989.34
2022-11-13T16:27:41.960Z,100119.84
2022-11-13T16:30:16.410Z,100121.69
2022-11-13T16:32:46.859Z,100049.72
2022-11-13T16:35:16.055Z,99942.66
2022-11-13T16:37:44.743Z,100016.97
2022-11-13T16:40:19.863Z,100107.22
2022-11-13T16:56:22.256Z,100083.69
2022-11-13T16:58:57.634Z,100081.28
2022-11-13T17:01:25.787Z,99916.34
2022-11-13T17:03:53.568Z,100081.66
2022-11-13T17:06:22.383Z,99982.97
2022-11-13T17:08:54.522Z,100067.69
2022-11-13T17:11:22.735Z,100071.63
2022-11-13T17:13:50.955Z,99966.09
2022-11-13T17:16:21.090Z,99925.16
2022-11-13T17:18:52.294Z,99930.72
2022-11-13T17:21:22.553Z,99942.09
2022-11-13T17:23:55.725Z,99927.81
2022-11-13T17:26:23.509Z,100009.25
2022-11-13T17:28:51.349Z,100066.69
2022-11-13T17:31:20.607Z,100051.91
2022-11-13T17:33:49.132Z,100000.09
2022-11-13T17:36:16.854Z,99846.91
2022-11-13T17:38:44.600Z,100046.16
2022-11-13T17:41:15.256Z,99879.84
2022-11-13T17:43:43.533Z,100009.28
2022-11-13T17:46:12.304Z,99892.69
2022-11-13T17:48:42.523Z,99991.38
2022-11-13T17:51:12.448Z,100033.41
2022-11-13T17:53:40.600Z,100040.19
2022-11-13T17:56:10.022Z,100041.19
2022-11-13T17:58:42.634Z,100016.50
2022-11-13T18:01:12.013Z,100037.06
2022-11-13T18:03:39.875Z,100032.78
2022-11-13T18:06:12.855Z,100047.03
2022-11-13T18:08:44.953Z,100029.59
2022-11-13T18:11:15.443Z,100030.56
2022-11-13T18:13:43.574Z,100003.22
2022-11-13T18:16:12.876Z,100020.41
2022-11-13T18:18:40.708Z,100042.31
2022-11-13T18:21:28.739Z,100036.28
2022-11-13T18:23:59.569Z,100025.19
2022-11-13T18:26:27.543Z,100042.69
2022-11-13T18:28:55.546Z,100041.03
2022-11-13T18:31:23.567Z,99985.53
2022-11-13T18:33:51.424Z,100033.28
2022-11-13T18:36:20.513Z,100037.75
2022-11-13T18:38:48.244Z,100034.31
2022-11-13T18:41:16.646Z,99974.44
2022-11-13T18:43:44.477Z,99968.34
2022-11-13T18:46:13.089Z,100021.41
2022-11-13T18:48:42.030Z,99921.88
2022-11-13T18:51:12.123Z,100034.78
2022-11-13T18:53:41.303Z,99999.22
2022-11-13T18:56:12.647Z,100071.72
2022-11-13T19:09:13.944Z,99970.97
2022-11-13T19:11:41.990Z,99979.69
2022-11-13T19:14:09.842Z,100030.34
2022-11-13T19:16:38.882Z,99927.84
2022-11-13T19:19:07.982Z,100034.13
2022-11-13T19:21:36.727Z,99914.25
2022-11-13T19:24:06.084Z,100005.25
2022-11-13T19:26:35.449Z,99884.84
2022-11-13T19:29:03.344Z,99936.84
2022-11-13T19:31:31.294Z,99651.06
2022-11-13T19:33:59.660Z,99986.41
2022-11-13T19:36:28.233Z,100045.78
2022-11-13T19:38:57.400Z,99912.66
2022-11-13T19:41:25.722Z,100067.72
2022-11-13T19:43:55.569Z,99993.38
2022-11-13T19:46:23.540Z,99915.22
2022-11-13T19:48:51.335Z,99996.06
2022-11-13T19:51:21.052Z,99976.13
2022-11-13T19:53:53.713Z,99749.34
2022-11-13T19:56:22.182Z,100013.78
2022-11-13T19:58:51.431Z,99998.84
2022-11-13T20:01:21.771Z,99839.88
2022-11-13T20:03:49.709Z,99897.19
2022-11-13T20:06:18.367Z,99870.22
2022-11-13T20:08:46.237Z,100052.38
2022-11-13T20:11:15.546Z,99992.94
2022-11-13T20:13:43.609Z,99921.59
2022-11-13T20:16:12.198Z,99614.09
2022-11-13T20:18:41.792Z,99811.66
2022-11-13T20:21:09.602Z,99829.59
2022-11-13T20:23:37.625Z,99970.38
2022-11-13T20:26:07.006Z,99961.72
2022-11-13T20:28:35.107Z,99565.59
2022-11-13T20:31:07.306Z,99897.53
2022-11-13T20:33:35.718Z,99816.19
2022-11-13T20:36:05.048Z,99843.75
2022-11-13T20:38:33.076Z,99873.16
2022-11-13T20:41:04.276Z,99891.56
2022-11-13T20:43:32.277Z,99901.94
2022-11-13T20:46:04.102Z,100039.66
2022-11-13T20:48:32.188Z,99947.06
2022-11-13T20:51:09.948Z,99748.25
2022-11-13T20:53:37.684Z,99992.00
2022-11-13T20:56:06.123Z,99858.50
2022-11-13T20:58:34.057Z,99896.22
2022-11-13T21:01:03.301Z,99743.13
2022-11-13T21:03:31.304Z,99900.31
2022-11-13T21:06:02.371Z,99861.13
2022-11-13T21:08:58.164Z,99947.19
2022-11-13T21:11:26.573Z,99940.25
2022-11-13T21:13:55.428Z,99940.28
2022-11-13T21:16:24.395Z,99811.75
2022-11-13T21:18:52.291Z,99942.06
2022-11-13T21:21:26.098Z,99799.53
2022-11-13T21:23:58.547Z,99938.59
2022-11-13T21:26:40.103Z,99710.09
2022-11-13T21:29:11.122Z,99826.47
2022-11-13T21:31:39.755Z,99915.19
2022-11-13T21:34:09.129Z,99800.41
2022-11-13T21:36:37.239Z,99930.88
2022-11-13T21:39:15.549Z,99777.94
2022-11-13T21:41:47.311Z,99696.16
2022-11-13T21:44:15.534Z,99778.03
2022-11-13T21:46:43.431Z,99362.88
2022-11-13T21:49:13.483Z,99666.69
2022-11-13T21:51:53.256Z,99925.78
2022-11-13T21:54:22.998Z,99802.22
2022-11-13T21:57:03.820Z,99954.59
2022-11-13T21:59:32.152Z,99740.63
2022-11-13T22:02:01.308Z,99652.81
2022-11-13T22:04:32.029Z,99676.34
2022-11-13T22:07:00.367Z,99547.72
2022-11-13T22:09:28.531Z,99658.91
2022-11-13T22:11:57.978Z,99827.66
2022-11-13T22:14:26.339Z,99777.19
2022-11-13T22:16:55.097Z,99705.91
2022-11-13T22:19:27.622Z,99877.19
2022-11-13T22:21:57.410Z,99741.53
2022-11-13T22:24:25.716Z,99667.66
2022-11-13T22:26:54.401Z,99898.06
2022-11-13T22:29:26.739Z,99807.69
2022-11-13T22:32:05.303Z,99678.09
2022-11-13T22:34:38.956Z,99487.75
2022-11-13T22:37:22.868Z,100021.88
2022-11-13T22:40:30.285Z,99565.13
2022-11-13T22:43:02.588Z,99318.59
2022-11-13T22:45:34.337Z,99835.53
2022-11-13T22:48:04.162Z,99447.06
2022-11-13T22:50:36.234Z,99883.41
2022-11-13T22:53:05.382Z,99718.97
2022-11-13T22:55:38.044Z,99850.28
2022-11-13T22:58:06.576Z,99598.13
2022-11-13T23:00:37.641Z,99718.06
2022-11-13T23:03:14.797Z,100035.78
2022-11-13T23:05:54.027Z,99738.09
2022-11-13T23:08:29.940Z,99685.91
2022-11-13T23:10:58.962Z,99834.63
2022-11-13T23:13:28.831Z,99475.66
2022-11-13T23:16:03.013Z,99564.13
2022-11-13T23:18:32.241Z,99618.94
2022-11-13T23:21:05.531Z,99902.53
2022-11-13T23:23:35.497Z,99793.63
2022-11-13T23:26:07.751Z,99578.13
2022-11-13T23:28:38.951Z,99422.56
2022-11-13T23:31:09.224Z,99481.63
2022-11-13T23:33:40.817Z,99588.53
2022-11-13T23:36:32.434Z,99602.47
2022-11-13T23:42:11.658Z,99678.94
2022-11-13T23:44:39.970Z,99595.47
2022-11-13T23:47:09.361Z,99949.47
2022-11-13T23:49:40.147Z,99321.84
2022-11-13T23:52:08.183Z,99786.81
2022-11-13T23:54:38.978Z,99757.19
2022-11-13T23:57:08.145Z,99717.19
2022-11-13T23:59:38.921Z,99718.91
